Sweet Grass, Montana
Current Conditions -  °F | °C
As of 7:56 PM on Saturday 22 Nov 2014 (Local Time) from KCTB Reporting Station
Clear Clear  
Wind Chill: 21°   Ceiling: Unl
Heat Index: 33°   Visibility: 10mi
Dew Point: 20°   Wind: 22mph
Humidity: 59%   Direction: 270°W
Pressure: 29.5"   Gusts: 29mph
Location:  48.99°N, 111.96°W
Report Text: KCTB 230256Z AUTO 27019G25KT 10SM CLR 01/M07 A2950 RMK AO2 PK WND 27029/0232 SLP008 T00061067 51028
Loading
Personal Weather Stations






























Interactive Weather Map New forecast layout! Learn more

10-Day Weather Forecast

Advertisements
Track Severe Weather on mobile